Terminal Aerodrome Forecast
Issued by NWS Goodland, KS

Home | Current Version | Previous Version | Text Only | Print | Product List | Glossary On
Versions: 1 2 3 4 5 6 7 8 9 10 11 12 13 14 15
000
FTUS43 KGLD 270551
TAFGLD
TAF
KGLD 270551Z 2706/2806 20007KT P6SM SCT090
     FM271300 22010KT P6SM SCT200
     FM280300 24010KT P6SM SCT150=

USA.gov is the U.S. government's official web portal to all federal, state and local government web resources and services.